Airfield :
LOGIN :

Register | Disclaimer

   EN    FR    IT 

 










Legend :    VFR   Marginal VFR   IFR   Intensive IFR   Very Intensive IFR
Visi :
Ceiling :
>= 8 km
>= 3000ft
5 to 8 km
1000 to 3000 ft
1500m to 5 km
500 to 1000 ft
800 to 1500m
200 to 500 ft
< 800m
< 200 ft
Symbols :   Thunderstorms  Fog  Heavy snow  Heavy precipitations  Wind > 20 kt
SIGMETs :     Misc.  Thunderstorms  Icing  Turbulence  Mountain Waves  Volcanic Ashes






- Airport Elevation : 392 ft
- IATA code : CDG


LFPG - Paris-Aeroport Charles De Gaulle

CURRENT METAR :
  • 080300Z 22017KT 9999 BKN021 10/06 Q1012 BECMG 21017G27KT BKN010

EXPIRED METARs :
  • 080230Z 22016KT 9999 FEW008 BKN017 10/07 Q1013 TEMPO BKN010
  • 080200Z 21016KT 9999 BKN008 BKN012 10/08 Q1013 TEMPO BKN020
  • 080130Z 20014KT 9999 -DZ BKN008 BKN012 10/08 Q1014 TEMPO BKN020
  • 080100Z 20013KT 9999 FEW010 BKN028 10/08 Q1014 NOSIG
  • 080030Z 20012KT 9999 BKN029 10/08 Q1014 NOSIG

TAF TAF LFPG
Valid from the 08 at 00:00 until the 09 at 06:00 UTC


072300Z 0800/0906 20010KT 9999 BKN030 TX12/0813Z TN07/0823Z
TEMPO 0800/0803 BKN010
BECMG 0803/0805 21015G25KT BKN010
TEMPO 0807/0809 3500 RA BKN005
BECMG 0813/0815 CAVOK
PROB40
TEMPO 0819/0820 25020G40KT 2000 SHRA SCT018TCU
TEMPO 0901/0906 25020G35KT 4000 -SHRA BKN012 SCT015TCU
ATIS : +33 1 48 62 10 92



MET'MAP, your aeronautical weather chart ! - Copyright ORBIFLY December 2007 - Disclaimer

ORBIFLY MET'MAP TEAM :

Programming & Development : Alexandra Zaïnal
Concept & original design : Baudouin d'Aumeries
Assistance for programming : Marc-Olivier Méhu
Technical & hardware support : Manuel Goepfert

Contact : metmap@orbifly.com




SOURCES & CREDITS :

   NOAA